sensor_id;sensor_type;location;lat;lon;timestamp;P1;durP1;ratioP1;P2;durP2;ratioP2
295;SDS011;132;48.770;9.200;2022-07-29T00:00:59;8.87;;;6.87;;
295;SDS011;132;48.770;9.200;2022-07-29T00:03:46;7.53;;;6.57;;
295;SDS011;132;48.770;9.200;2022-07-29T00:06:32;6.80;;;6.37;;
295;SDS011;132;48.770;9.200;2022-07-29T00:09:19;7.37;;;6.20;;
295;SDS011;132;48.770;9.200;2022-07-29T00:12:06;8.70;;;6.60;;
295;SDS011;132;48.770;9.200;2022-07-29T00:14:53;8.80;;;6.83;;
295;SDS011;132;48.770;9.200;2022-07-29T00:17:40;8.07;;;6.67;;
295;SDS011;132;48.770;9.200;2022-07-29T00:20:27;9.17;;;6.27;;
295;SDS011;132;48.770;9.200;2022-07-29T00:23:13;8.63;;;6.27;;
295;SDS011;132;48.770;9.200;2022-07-29T00:26:00;7.13;;;6.17;;
295;SDS011;132;48.770;9.200;2022-07-29T00:28:46;6.50;;;6.10;;
295;SDS011;132;48.770;9.200;2022-07-29T00:31:33;8.43;;;6.43;;
295;SDS011;132;48.770;9.200;2022-07-29T00:34:20;9.90;;;6.23;;
295;SDS011;132;48.770;9.200;2022-07-29T00:37:25;8.27;;;6.20;;
295;SDS011;132;48.770;9.200;2022-07-29T00:40:11;8.97;;;6.60;;
295;SDS011;132;48.770;9.200;2022-07-29T00:42:59;8.73;;;6.87;;
295;SDS011;132;48.770;9.200;2022-07-29T00:45:45;12.20;;;6.60;;
295;SDS011;132;48.770;9.200;2022-07-29T00:48:32;9.80;;;6.87;;
295;SDS011;132;48.770;9.200;2022-07-29T00:51:19;8.70;;;7.00;;
295;SDS011;132;48.770;9.200;2022-07-29T00:54:05;6.97;;;6.20;;
295;SDS011;132;48.770;9.200;2022-07-29T00:56:53;7.60;;;6.33;;
295;SDS011;132;48.770;9.200;2022-07-29T00:59:39;7.77;;;6.40;;
295;SDS011;132;48.770;9.200;2022-07-29T01:02:27;7.03;;;6.20;;
295;SDS011;132;48.770;9.200;2022-07-29T01:05:14;11.20;;;6.87;;
295;SDS011;132;48.770;9.200;2022-07-29T01:08:03;8.47;;;6.70;;
295;SDS011;132;48.770;9.200;2022-07-29T01:10:50;7.70;;;6.60;;
295;SDS011;132;48.770;9.200;2022-07-29T01:13:38;8.17;;;6.17;;
295;SDS011;132;48.770;9.200;2022-07-29T01:16:25;9.83;;;6.50;;
295;SDS011;132;48.770;9.200;2022-07-29T01:31:54;8.00;;;5.73;;
295;SDS011;132;48.770;9.200;2022-07-29T01:34:53;6.90;;;5.60;;
295;SDS011;132;48.770;9.200;2022-07-29T01:37:55;8.30;;;6.00;;
295;SDS011;132;48.770;9.200;2022-07-29T01:40:49;8.13;;;5.50;;
295;SDS011;132;48.770;9.200;2022-07-29T01:46:58;7.03;;;5.40;;
295;SDS011;132;48.770;9.200;2022-07-29T01:49:49;9.70;;;6.10;;
295;SDS011;132;48.770;9.200;2022-07-29T01:52:39;6.00;;;5.03;;
295;SDS011;132;48.770;9.200;2022-07-29T01:55:34;8.87;;;5.60;;
295;SDS011;132;48.770;9.200;2022-07-29T01:58:24;5.97;;;5.07;;
295;SDS011;132;48.770;9.200;2022-07-29T02:01:12;6.20;;;5.27;;
295;SDS011;132;48.770;9.200;2022-07-29T02:04:03;9.53;;;6.00;;
295;SDS011;132;48.770;9.200;2022-07-29T02:06:52;9.10;;;6.20;;
295;SDS011;132;48.770;9.200;2022-07-29T02:09:42;5.97;;;5.33;;
295;SDS011;132;48.770;9.200;2022-07-29T02:12:31;5.80;;;5.53;;
295;SDS011;132;48.770;9.200;2022-07-29T02:15:20;6.63;;;5.20;;
295;SDS011;132;48.770;9.200;2022-07-29T02:18:16;5.87;;;5.53;;
295;SDS011;132;48.770;9.200;2022-07-29T02:21:04;7.20;;;5.30;;
295;SDS011;132;48.770;9.200;2022-07-29T02:23:52;6.63;;;5.50;;
295;SDS011;132;48.770;9.200;2022-07-29T02:26:39;6.60;;;5.73;;
295;SDS011;132;48.770;9.200;2022-07-29T02:29:28;7.50;;;5.03;;
295;SDS011;132;48.770;9.200;2022-07-29T02:32:18;5.60;;;5.03;;
295;SDS011;132;48.770;9.200;2022-07-29T02:35:07;8.07;;;5.47;;
295;SDS011;132;48.770;9.200;2022-07-29T02:37:55;5.27;;;5.03;;
295;SDS011;132;48.770;9.200;2022-07-29T02:41:01;7.23;;;5.50;;
295;SDS011;132;48.770;9.200;2022-07-29T02:43:54;5.70;;;5.07;;
295;SDS011;132;48.770;9.200;2022-07-29T02:46:49;7.60;;;5.20;;
295;SDS011;132;48.770;9.200;2022-07-29T02:52:42;6.17;;;5.07;;
295;SDS011;132;48.770;9.200;2022-07-29T02:58:46;6.87;;;5.00;;
295;SDS011;132;48.770;9.200;2022-07-29T03:01:40;5.93;;;5.00;;
295;SDS011;132;48.770;9.200;2022-07-29T03:04:29;6.97;;;5.17;;
295;SDS011;132;48.770;9.200;2022-07-29T03:07:18;6.63;;;5.57;;
295;SDS011;132;48.770;9.200;2022-07-29T03:10:07;6.30;;;4.87;;
295;SDS011;132;48.770;9.200;2022-07-29T03:12:55;5.87;;;4.87;;
295;SDS011;132;48.770;9.200;2022-07-29T03:15:42;5.63;;;5.33;;
295;SDS011;132;48.770;9.200;2022-07-29T03:18:30;8.00;;;5.30;;
295;SDS011;132;48.770;9.200;2022-07-29T03:21:17;8.10;;;5.40;;
295;SDS011;132;48.770;9.200;2022-07-29T03:24:04;6.90;;;5.40;;
295;SDS011;132;48.770;9.200;2022-07-29T03:26:51;7.70;;;5.00;;
295;SDS011;132;48.770;9.200;2022-07-29T03:29:37;7.23;;;5.27;;
295;SDS011;132;48.770;9.200;2022-07-29T03:32:24;9.73;;;5.87;;
295;SDS011;132;48.770;9.200;2022-07-29T03:35:10;6.50;;;5.80;;
295;SDS011;132;48.770;9.200;2022-07-29T03:37:57;6.20;;;5.57;;
295;SDS011;132;48.770;9.200;2022-07-29T03:40:46;7.33;;;5.70;;
295;SDS011;132;48.770;9.200;2022-07-29T03:43:38;7.40;;;5.70;;
295;SDS011;132;48.770;9.200;2022-07-29T03:46:27;7.30;;;6.13;;
295;SDS011;132;48.770;9.200;2022-07-29T03:49:16;6.27;;;5.50;;
295;SDS011;132;48.770;9.200;2022-07-29T03:52:04;6.90;;;5.93;;
295;SDS011;132;48.770;9.200;2022-07-29T03:54:52;5.77;;;5.27;;
295;SDS011;132;48.770;9.200;2022-07-29T03:57:39;7.53;;;5.90;;
295;SDS011;132;48.770;9.200;2022-07-29T04:00:26;8.37;;;5.97;;
295;SDS011;132;48.770;9.200;2022-07-29T04:03:13;8.33;;;6.00;;
295;SDS011;132;48.770;9.200;2022-07-29T04:06:01;6.73;;;5.53;;
295;SDS011;132;48.770;9.200;2022-07-29T04:08:49;7.50;;;6.40;;
295;SDS011;132;48.770;9.200;2022-07-29T04:11:36;7.40;;;5.93;;
295;SDS011;132;48.770;9.200;2022-07-29T04:14:24;8.70;;;5.93;;
295;SDS011;132;48.770;9.200;2022-07-29T04:17:11;6.17;;;5.80;;
295;SDS011;132;48.770;9.200;2022-07-29T04:19:58;5.60;;;5.27;;
295;SDS011;132;48.770;9.200;2022-07-29T04:22:44;7.83;;;5.87;;
295;SDS011;132;48.770;9.200;2022-07-29T04:25:31;7.73;;;5.30;;
295;SDS011;132;48.770;9.200;2022-07-29T04:28:17;6.40;;;5.50;;
295;SDS011;132;48.770;9.200;2022-07-29T04:31:04;7.97;;;5.70;;
295;SDS011;132;48.770;9.200;2022-07-29T04:33:51;6.60;;;5.20;;
295;SDS011;132;48.770;9.200;2022-07-29T04:36:37;7.87;;;5.33;;
295;SDS011;132;48.770;9.200;2022-07-29T04:39:25;6.67;;;5.40;;
295;SDS011;132;48.770;9.200;2022-07-29T04:42:11;7.27;;;5.53;;
295;SDS011;132;48.770;9.200;2022-07-29T04:44:58;5.87;;;4.97;;
295;SDS011;132;48.770;9.200;2022-07-29T04:47:45;7.50;;;5.27;;
295;SDS011;132;48.770;9.200;2022-07-29T04:50:32;7.27;;;5.60;;
295;SDS011;132;48.770;9.200;2022-07-29T04:53:18;5.47;;;5.00;;
295;SDS011;132;48.770;9.200;2022-07-29T04:56:05;6.33;;;5.03;;
295;SDS011;132;48.770;9.200;2022-07-29T04:58:52;6.10;;;4.70;;
295;SDS011;132;48.770;9.200;2022-07-29T05:01:39;6.60;;;5.43;;
295;SDS011;132;48.770;9.200;2022-07-29T05:04:25;6.13;;;4.80;;
295;SDS011;132;48.770;9.200;2022-07-29T05:07:12;5.80;;;5.00;;
295;SDS011;132;48.770;9.200;2022-07-29T05:09:58;5.50;;;4.80;;
295;SDS011;132;48.770;9.200;2022-07-29T05:12:45;5.07;;;4.60;;
295;SDS011;132;48.770;9.200;2022-07-29T05:15:32;5.67;;;4.40;;
295;SDS011;132;48.770;9.200;2022-07-29T05:18:20;6.10;;;4.50;;
295;SDS011;132;48.770;9.200;2022-07-29T05:21:07;5.20;;;4.37;;
295;SDS011;132;48.770;9.200;2022-07-29T05:23:53;6.50;;;4.40;;
295;SDS011;132;48.770;9.200;2022-07-29T05:26:40;4.03;;;3.73;;
295;SDS011;132;48.770;9.200;2022-07-29T05:29:26;3.90;;;3.43;;
295;SDS011;132;48.770;9.200;2022-07-29T05:32:13;4.60;;;4.30;;
295;SDS011;132;48.770;9.200;2022-07-29T05:35:00;7.00;;;4.30;;
295;SDS011;132;48.770;9.200;2022-07-29T05:37:46;4.47;;;3.93;;
295;SDS011;132;48.770;9.200;2022-07-29T05:40:33;4.77;;;3.90;;
295;SDS011;132;48.770;9.200;2022-07-29T05:43:20;4.47;;;3.90;;
295;SDS011;132;48.770;9.200;2022-07-29T05:46:06;4.17;;;3.53;;
295;SDS011;132;48.770;9.200;2022-07-29T05:48:53;4.23;;;3.60;;
295;SDS011;132;48.770;9.200;2022-07-29T05:51:40;4.10;;;3.63;;
295;SDS011;132;48.770;9.200;2022-07-29T05:54:26;7.87;;;3.63;;
295;SDS011;132;48.770;9.200;2022-07-29T05:57:16;4.70;;;3.60;;
295;SDS011;132;48.770;9.200;2022-07-29T06:00:04;6.97;;;4.03;;
295;SDS011;132;48.770;9.200;2022-07-29T06:02:58;4.13;;;3.20;;
295;SDS011;132;48.770;9.200;2022-07-29T06:05:45;5.33;;;3.80;;
295;SDS011;132;48.770;9.200;2022-07-29T06:08:31;3.97;;;3.80;;
295;SDS011;132;48.770;9.200;2022-07-29T06:11:19;3.63;;;3.43;;
295;SDS011;132;48.770;9.200;2022-07-29T06:14:06;6.03;;;3.83;;
295;SDS011;132;48.770;9.200;2022-07-29T06:16:52;5.63;;;3.80;;
295;SDS011;132;48.770;9.200;2022-07-29T06:19:39;6.83;;;3.80;;
295;SDS011;132;48.770;9.200;2022-07-29T06:22:26;7.20;;;3.83;;
295;SDS011;132;48.770;9.200;2022-07-29T06:25:12;5.70;;;4.13;;
295;SDS011;132;48.770;9.200;2022-07-29T06:27:59;5.00;;;4.20;;
295;SDS011;132;48.770;9.200;2022-07-29T06:30:45;3.90;;;3.70;;
295;SDS011;132;48.770;9.200;2022-07-29T06:33:32;5.50;;;4.50;;
295;SDS011;132;48.770;9.200;2022-07-29T06:36:19;8.43;;;4.20;;
295;SDS011;132;48.770;9.200;2022-07-29T06:39:06;4.40;;;4.20;;
295;SDS011;132;48.770;9.200;2022-07-29T06:41:53;4.73;;;3.83;;
295;SDS011;132;48.770;9.200;2022-07-29T06:44:44;5.00;;;4.03;;
295;SDS011;132;48.770;9.200;2022-07-29T06:47:30;4.30;;;3.90;;
295;SDS011;132;48.770;9.200;2022-07-29T06:50:17;5.10;;;3.90;;
295;SDS011;132;48.770;9.200;2022-07-29T06:53:04;5.70;;;3.90;;
295;SDS011;132;48.770;9.200;2022-07-29T06:55:51;5.50;;;4.13;;
295;SDS011;132;48.770;9.200;2022-07-29T06:58:37;5.97;;;4.37;;
295;SDS011;132;48.770;9.200;2022-07-29T07:01:24;5.67;;;4.57;;
295;SDS011;132;48.770;9.200;2022-07-29T07:04:11;7.50;;;4.60;;
295;SDS011;132;48.770;9.200;2022-07-29T07:06:58;4.60;;;4.30;;
295;SDS011;132;48.770;9.200;2022-07-29T07:09:45;6.20;;;4.30;;
295;SDS011;132;48.770;9.200;2022-07-29T07:12:32;6.27;;;4.73;;
295;SDS011;132;48.770;9.200;2022-07-29T07:15:18;6.03;;;4.60;;
295;SDS011;132;48.770;9.200;2022-07-29T07:18:08;6.50;;;4.50;;
295;SDS011;132;48.770;9.200;2022-07-29T07:20:55;4.50;;;4.20;;
295;SDS011;132;48.770;9.200;2022-07-29T07:23:42;6.00;;;4.60;;
295;SDS011;132;48.770;9.200;2022-07-29T07:26:29;9.70;;;4.43;;
295;SDS011;132;48.770;9.200;2022-07-29T07:29:15;5.00;;;4.47;;
295;SDS011;132;48.770;9.200;2022-07-29T07:32:02;5.43;;;4.43;;
295;SDS011;132;48.770;9.200;2022-07-29T07:34:49;6.37;;;4.77;;
295;SDS011;132;48.770;9.200;2022-07-29T07:37:35;7.77;;;3.80;;
295;SDS011;132;48.770;9.200;2022-07-29T07:40:23;4.70;;;4.33;;
295;SDS011;132;48.770;9.200;2022-07-29T07:43:10;6.00;;;4.80;;
295;SDS011;132;48.770;9.200;2022-07-29T07:45:56;6.60;;;4.90;;
295;SDS011;132;48.770;9.200;2022-07-29T07:48:43;6.17;;;4.67;;
295;SDS011;132;48.770;9.200;2022-07-29T07:51:30;6.73;;;4.87;;
295;SDS011;132;48.770;9.200;2022-07-29T07:54:16;6.70;;;4.67;;
295;SDS011;132;48.770;9.200;2022-07-29T07:57:03;5.00;;;3.70;;
295;SDS011;132;48.770;9.200;2022-07-29T07:59:50;6.00;;;4.80;;
295;SDS011;132;48.770;9.200;2022-07-29T08:02:36;6.33;;;4.77;;
295;SDS011;132;48.770;9.200;2022-07-29T08:05:23;9.27;;;4.93;;
295;SDS011;132;48.770;9.200;2022-07-29T08:08:10;8.00;;;4.20;;
295;SDS011;132;48.770;9.200;2022-07-29T08:10:57;5.83;;;4.67;;
295;SDS011;132;48.770;9.200;2022-07-29T08:13:44;7.37;;;4.70;;
295;SDS011;132;48.770;9.200;2022-07-29T08:16:32;7.20;;;4.63;;
295;SDS011;132;48.770;9.200;2022-07-29T08:19:19;6.23;;;4.23;;
295;SDS011;132;48.770;9.200;2022-07-29T08:22:06;6.47;;;4.80;;
295;SDS011;132;48.770;9.200;2022-07-29T08:24:52;4.90;;;4.40;;
295;SDS011;132;48.770;9.200;2022-07-29T08:27:40;7.40;;;4.97;;
295;SDS011;132;48.770;9.200;2022-07-29T08:30:26;12.10;;;4.53;;
295;SDS011;132;48.770;9.200;2022-07-29T08:33:13;6.67;;;5.33;;
295;SDS011;132;48.770;9.200;2022-07-29T08:36:00;7.77;;;5.00;;
295;SDS011;132;48.770;9.200;2022-07-29T08:38:46;5.57;;;4.30;;
295;SDS011;132;48.770;9.200;2022-07-29T08:41:35;6.33;;;4.80;;
295;SDS011;132;48.770;9.200;2022-07-29T08:44:22;5.83;;;5.00;;
295;SDS011;132;48.770;9.200;2022-07-29T08:47:08;7.53;;;4.80;;
295;SDS011;132;48.770;9.200;2022-07-29T08:49:55;9.80;;;4.83;;
295;SDS011;132;48.770;9.200;2022-07-29T08:52:42;6.13;;;4.90;;
295;SDS011;132;48.770;9.200;2022-07-29T08:55:29;6.47;;;4.60;;
295;SDS011;132;48.770;9.200;2022-07-29T08:58:16;8.90;;;4.90;;
295;SDS011;132;48.770;9.200;2022-07-29T09:01:03;8.00;;;5.20;;
295;SDS011;132;48.770;9.200;2022-07-29T09:03:50;6.20;;;4.87;;
295;SDS011;132;48.770;9.200;2022-07-29T09:06:46;9.63;;;5.47;;
295;SDS011;132;48.770;9.200;2022-07-29T09:09:33;10.10;;;4.90;;
295;SDS011;132;48.770;9.200;2022-07-29T09:12:20;6.10;;;5.00;;
295;SDS011;132;48.770;9.200;2022-07-29T09:15:08;10.33;;;5.60;;
295;SDS011;132;48.770;9.200;2022-07-29T09:17:55;9.77;;;5.77;;
295;SDS011;132;48.770;9.200;2022-07-29T09:20:48;9.53;;;5.57;;
295;SDS011;132;48.770;9.200;2022-07-29T09:24:10;9.50;;;4.87;;
295;SDS011;132;48.770;9.200;2022-07-29T09:26:58;10.37;;;5.63;;
295;SDS011;132;48.770;9.200;2022-07-29T09:29:45;8.43;;;5.50;;
295;SDS011;132;48.770;9.200;2022-07-29T09:32:32;7.20;;;5.50;;
295;SDS011;132;48.770;9.200;2022-07-29T09:35:39;6.70;;;5.60;;
295;SDS011;132;48.770;9.200;2022-07-29T09:38:26;7.63;;;5.53;;
295;SDS011;132;48.770;9.200;2022-07-29T09:41:13;7.43;;;4.90;;
295;SDS011;132;48.770;9.200;2022-07-29T09:44:00;7.87;;;5.50;;
295;SDS011;132;48.770;9.200;2022-07-29T09:47:01;11.07;;;5.63;;
295;SDS011;132;48.770;9.200;2022-07-29T09:49:56;6.67;;;5.60;;
295;SDS011;132;48.770;9.200;2022-07-29T09:52:46;6.53;;;5.90;;
295;SDS011;132;48.770;9.200;2022-07-29T09:55:49;6.30;;;5.20;;
295;SDS011;132;48.770;9.200;2022-07-29T09:58:36;7.73;;;5.47;;
295;SDS011;132;48.770;9.200;2022-07-29T10:01:29;8.77;;;5.30;;
295;SDS011;132;48.770;9.200;2022-07-29T10:04:16;8.30;;;5.80;;
295;SDS011;132;48.770;9.200;2022-07-29T10:07:03;7.67;;;6.60;;
295;SDS011;132;48.770;9.200;2022-07-29T10:09:54;8.93;;;6.47;;
295;SDS011;132;48.770;9.200;2022-07-29T10:13:15;6.87;;;5.90;;
295;SDS011;132;48.770;9.200;2022-07-29T10:15:56;6.90;;;6.10;;
295;SDS011;132;48.770;9.200;2022-07-29T10:18:43;8.10;;;6.00;;
295;SDS011;132;48.770;9.200;2022-07-29T10:21:31;7.80;;;5.37;;
295;SDS011;132;48.770;9.200;2022-07-29T10:24:18;8.57;;;4.67;;
295;SDS011;132;48.770;9.200;2022-07-29T10:27:06;11.27;;;4.70;;
295;SDS011;132;48.770;9.200;2022-07-29T10:29:54;7.70;;;4.93;;
295;SDS011;132;48.770;9.200;2022-07-29T10:45:03;8.50;;;5.73;;
295;SDS011;132;48.770;9.200;2022-07-29T10:48:01;9.90;;;5.87;;
295;SDS011;132;48.770;9.200;2022-07-29T10:53:50;20.67;;;8.03;;
295;SDS011;132;48.770;9.200;2022-07-29T10:56:38;22.30;;;9.80;;
295;SDS011;132;48.770;9.200;2022-07-29T10:59:26;15.23;;;9.20;;
295;SDS011;132;48.770;9.200;2022-07-29T11:05:19;18.77;;;10.70;;
295;SDS011;132;48.770;9.200;2022-07-29T11:14:04;21.53;;;12.37;;
295;SDS011;132;48.770;9.200;2022-07-29T11:16:58;16.97;;;10.97;;
295;SDS011;132;48.770;9.200;2022-07-29T11:19:48;19.30;;;10.10;;
295;SDS011;132;48.770;9.200;2022-07-29T11:22:35;17.40;;;11.20;;
295;SDS011;132;48.770;9.200;2022-07-29T11:25:23;16.60;;;9.93;;
295;SDS011;132;48.770;9.200;2022-07-29T11:28:12;19.50;;;11.23;;
295;SDS011;132;48.770;9.200;2022-07-29T11:31:02;15.47;;;10.40;;
295;SDS011;132;48.770;9.200;2022-07-29T11:33:50;13.23;;;9.97;;
295;SDS011;132;48.770;9.200;2022-07-29T11:36:37;12.30;;;8.60;;
295;SDS011;132;48.770;9.200;2022-07-29T11:42:44;15.70;;;9.37;;
295;SDS011;132;48.770;9.200;2022-07-29T11:45:44;11.47;;;9.37;;
295;SDS011;132;48.770;9.200;2022-07-29T11:48:32;14.90;;;9.97;;
295;SDS011;132;48.770;9.200;2022-07-29T11:51:19;11.00;;;9.67;;
295;SDS011;132;48.770;9.200;2022-07-29T11:54:05;14.00;;;11.37;;
295;SDS011;132;48.770;9.200;2022-07-29T11:56:57;14.30;;;9.97;;
295;SDS011;132;48.770;9.200;2022-07-29T11:59:44;13.77;;;9.00;;
295;SDS011;132;48.770;9.200;2022-07-29T12:02:39;11.77;;;8.90;;
295;SDS011;132;48.770;9.200;2022-07-29T12:05:45;13.60;;;7.93;;
295;SDS011;132;48.770;9.200;2022-07-29T12:08:38;12.30;;;8.67;;
295;SDS011;132;48.770;9.200;2022-07-29T12:11:27;10.10;;;7.93;;
295;SDS011;132;48.770;9.200;2022-07-29T12:17:33;10.60;;;9.30;;
295;SDS011;132;48.770;9.200;2022-07-29T12:20:27;8.87;;;6.80;;
295;SDS011;132;48.770;9.200;2022-07-29T12:23:14;9.23;;;6.47;;
295;SDS011;132;48.770;9.200;2022-07-29T12:26:05;6.63;;;6.10;;
295;SDS011;132;48.770;9.200;2022-07-29T12:28:52;6.87;;;6.13;;
295;SDS011;132;48.770;9.200;2022-07-29T12:31:39;6.90;;;5.57;;
295;SDS011;132;48.770;9.200;2022-07-29T12:34:26;6.70;;;5.13;;
295;SDS011;132;48.770;9.200;2022-07-29T12:37:14;7.60;;;6.50;;
295;SDS011;132;48.770;9.200;2022-07-29T12:40:01;7.23;;;6.40;;
295;SDS011;132;48.770;9.200;2022-07-29T12:43:10;8.30;;;6.73;;
295;SDS011;132;48.770;9.200;2022-07-29T12:46:00;9.70;;;6.73;;
295;SDS011;132;48.770;9.200;2022-07-29T12:48:58;10.00;;;6.50;;
295;SDS011;132;48.770;9.200;2022-07-29T12:51:45;8.60;;;6.03;;
295;SDS011;132;48.770;9.200;2022-07-29T12:54:31;8.27;;;6.00;;
295;SDS011;132;48.770;9.200;2022-07-29T12:57:18;7.50;;;5.73;;
295;SDS011;132;48.770;9.200;2022-07-29T13:00:09;10.60;;;6.20;;
295;SDS011;132;48.770;9.200;2022-07-29T13:02:59;8.70;;;5.70;;
295;SDS011;132;48.770;9.200;2022-07-29T13:05:47;8.00;;;6.23;;
295;SDS011;132;48.770;9.200;2022-07-29T13:08:33;8.10;;;6.20;;
295;SDS011;132;48.770;9.200;2022-07-29T13:17:22;5.80;;;5.57;;
295;SDS011;132;48.770;9.200;2022-07-29T13:20:10;8.40;;;6.47;;
295;SDS011;132;48.770;9.200;2022-07-29T13:23:00;10.43;;;7.23;;
295;SDS011;132;48.770;9.200;2022-07-29T13:25:47;9.70;;;5.87;;
295;SDS011;132;48.770;9.200;2022-07-29T13:28:34;7.80;;;6.43;;
295;SDS011;132;48.770;9.200;2022-07-29T13:31:20;10.27;;;7.40;;
295;SDS011;132;48.770;9.200;2022-07-29T13:34:08;9.30;;;7.00;;
295;SDS011;132;48.770;9.200;2022-07-29T13:36:54;9.30;;;7.00;;
295;SDS011;132;48.770;9.200;2022-07-29T13:39:41;10.17;;;7.23;;
295;SDS011;132;48.770;9.200;2022-07-29T13:42:28;9.60;;;7.30;;
295;SDS011;132;48.770;9.200;2022-07-29T13:45:15;12.10;;;7.83;;
295;SDS011;132;48.770;9.200;2022-07-29T13:48:01;9.90;;;7.63;;
295;SDS011;132;48.770;9.200;2022-07-29T13:50:48;9.63;;;8.20;;
295;SDS011;132;48.770;9.200;2022-07-29T13:53:35;13.40;;;8.87;;
295;SDS011;132;48.770;9.200;2022-07-29T13:56:21;11.23;;;9.20;;
295;SDS011;132;48.770;9.200;2022-07-29T13:59:08;13.40;;;10.40;;
295;SDS011;132;48.770;9.200;2022-07-29T14:01:55;13.23;;;11.63;;
295;SDS011;132;48.770;9.200;2022-07-29T14:04:41;12.90;;;9.63;;
295;SDS011;132;48.770;9.200;2022-07-29T14:07:28;16.60;;;9.37;;
295;SDS011;132;48.770;9.200;2022-07-29T14:10:14;16.30;;;11.27;;
295;SDS011;132;48.770;9.200;2022-07-29T14:13:01;17.67;;;11.83;;
295;SDS011;132;48.770;9.200;2022-07-29T14:15:48;15.23;;;10.63;;
295;SDS011;132;48.770;9.200;2022-07-29T14:18:34;10.97;;;10.20;;
295;SDS011;132;48.770;9.200;2022-07-29T14:21:21;12.53;;;9.93;;
295;SDS011;132;48.770;9.200;2022-07-29T14:24:08;12.37;;;9.43;;
295;SDS011;132;48.770;9.200;2022-07-29T14:26:54;11.00;;;9.97;;
295;SDS011;132;48.770;9.200;2022-07-29T14:29:41;9.00;;;8.33;;
295;SDS011;132;48.770;9.200;2022-07-29T14:32:27;12.53;;;9.33;;
295;SDS011;132;48.770;9.200;2022-07-29T14:35:15;11.90;;;9.40;;
295;SDS011;132;48.770;9.200;2022-07-29T14:38:01;10.83;;;9.10;;
295;SDS011;132;48.770;9.200;2022-07-29T14:40:48;12.47;;;9.20;;
295;SDS011;132;48.770;9.200;2022-07-29T14:43:35;10.97;;;8.53;;
295;SDS011;132;48.770;9.200;2022-07-29T14:46:21;9.47;;;8.63;;
295;SDS011;132;48.770;9.200;2022-07-29T14:49:08;8.53;;;8.03;;
295;SDS011;132;48.770;9.200;2022-07-29T14:51:54;9.40;;;7.50;;
295;SDS011;132;48.770;9.200;2022-07-29T14:54:41;8.60;;;7.50;;
295;SDS011;132;48.770;9.200;2022-07-29T14:57:28;8.40;;;7.53;;
295;SDS011;132;48.770;9.200;2022-07-29T15:00:15;13.80;;;8.33;;
295;SDS011;132;48.770;9.200;2022-07-29T15:03:03;9.50;;;7.87;;
295;SDS011;132;48.770;9.200;2022-07-29T15:05:50;8.63;;;7.60;;
295;SDS011;132;48.770;9.200;2022-07-29T15:08:37;9.00;;;7.57;;
295;SDS011;132;48.770;9.200;2022-07-29T15:11:24;12.90;;;8.83;;
295;SDS011;132;48.770;9.200;2022-07-29T15:14:11;10.50;;;8.07;;
295;SDS011;132;48.770;9.200;2022-07-29T15:16:57;9.20;;;6.87;;
295;SDS011;132;48.770;9.200;2022-07-29T15:19:44;11.10;;;7.53;;
295;SDS011;132;48.770;9.200;2022-07-29T15:22:31;12.70;;;6.90;;
295;SDS011;132;48.770;9.200;2022-07-29T15:25:18;11.80;;;8.10;;
295;SDS011;132;48.770;9.200;2022-07-29T15:28:05;11.13;;;8.37;;
295;SDS011;132;48.770;9.200;2022-07-29T15:30:54;10.13;;;8.13;;
295;SDS011;132;48.770;9.200;2022-07-29T15:33:41;11.43;;;7.43;;
295;SDS011;132;48.770;9.200;2022-07-29T15:36:28;14.10;;;7.63;;
295;SDS011;132;48.770;9.200;2022-07-29T15:39:14;9.30;;;8.03;;
295;SDS011;132;48.770;9.200;2022-07-29T15:42:01;11.43;;;8.40;;
295;SDS011;132;48.770;9.200;2022-07-29T15:44:48;12.53;;;9.00;;
295;SDS011;132;48.770;9.200;2022-07-29T15:47:35;9.07;;;7.63;;
295;SDS011;132;48.770;9.200;2022-07-29T15:50:22;10.00;;;8.80;;
295;SDS011;132;48.770;9.200;2022-07-29T15:53:08;10.73;;;8.77;;
295;SDS011;132;48.770;9.200;2022-07-29T15:55:55;11.67;;;7.77;;
295;SDS011;132;48.770;9.200;2022-07-29T15:58:42;12.07;;;8.40;;
295;SDS011;132;48.770;9.200;2022-07-29T16:01:28;12.00;;;8.63;;
295;SDS011;132;48.770;9.200;2022-07-29T16:04:15;13.17;;;9.27;;
295;SDS011;132;48.770;9.200;2022-07-29T16:07:02;10.63;;;8.03;;
295;SDS011;132;48.770;9.200;2022-07-29T16:09:49;10.03;;;8.80;;
295;SDS011;132;48.770;9.200;2022-07-29T16:12:35;10.17;;;8.80;;
295;SDS011;132;48.770;9.200;2022-07-29T16:15:22;12.43;;;8.70;;
295;SDS011;132;48.770;9.200;2022-07-29T16:18:09;14.70;;;12.27;;
295;SDS011;132;48.770;9.200;2022-07-29T16:20:55;41.23;;;27.80;;
295;SDS011;132;48.770;9.200;2022-07-29T16:23:42;19.60;;;13.50;;
295;SDS011;132;48.770;9.200;2022-07-29T16:26:29;13.03;;;9.63;;
295;SDS011;132;48.770;9.200;2022-07-29T16:29:16;10.93;;;8.00;;
295;SDS011;132;48.770;9.200;2022-07-29T16:32:04;8.00;;;7.37;;
295;SDS011;132;48.770;9.200;2022-07-29T16:34:51;9.93;;;8.40;;
295;SDS011;132;48.770;9.200;2022-07-29T16:37:37;10.77;;;8.20;;
295;SDS011;132;48.770;9.200;2022-07-29T16:40:24;29.10;;;20.10;;
295;SDS011;132;48.770;9.200;2022-07-29T16:43:11;15.80;;;12.63;;
295;SDS011;132;48.770;9.200;2022-07-29T16:45:58;19.67;;;11.07;;
295;SDS011;132;48.770;9.200;2022-07-29T16:48:44;12.00;;;8.33;;
295;SDS011;132;48.770;9.200;2022-07-29T16:51:31;9.83;;;7.77;;
295;SDS011;132;48.770;9.200;2022-07-29T16:54:18;16.67;;;8.60;;
295;SDS011;132;48.770;9.200;2022-07-29T16:57:04;8.57;;;7.63;;
295;SDS011;132;48.770;9.200;2022-07-29T16:59:51;10.90;;;7.73;;
295;SDS011;132;48.770;9.200;2022-07-29T17:02:38;9.00;;;7.50;;
295;SDS011;132;48.770;9.200;2022-07-29T17:05:25;14.93;;;9.87;;
295;SDS011;132;48.770;9.200;2022-07-29T17:08:12;17.83;;;10.47;;
295;SDS011;132;48.770;9.200;2022-07-29T17:10:59;14.23;;;10.90;;
295;SDS011;132;48.770;9.200;2022-07-29T17:13:45;14.57;;;8.80;;
295;SDS011;132;48.770;9.200;2022-07-29T17:16:32;10.10;;;7.30;;
295;SDS011;132;48.770;9.200;2022-07-29T17:19:19;8.80;;;7.73;;
295;SDS011;132;48.770;9.200;2022-07-29T17:22:06;8.93;;;7.20;;
295;SDS011;132;48.770;9.200;2022-07-29T17:24:53;10.33;;;7.47;;
295;SDS011;132;48.770;9.200;2022-07-29T17:27:40;16.33;;;11.97;;
295;SDS011;132;48.770;9.200;2022-07-29T17:30:28;18.40;;;10.60;;
295;SDS011;132;48.770;9.200;2022-07-29T17:33:14;10.80;;;7.77;;
295;SDS011;132;48.770;9.200;2022-07-29T17:36:01;8.80;;;7.03;;
295;SDS011;132;48.770;9.200;2022-07-29T17:39:07;10.17;;;6.80;;
295;SDS011;132;48.770;9.200;2022-07-29T17:41:56;8.87;;;6.30;;
295;SDS011;132;48.770;9.200;2022-07-29T17:44:43;8.90;;;6.57;;
295;SDS011;132;48.770;9.200;2022-07-29T17:47:29;8.73;;;6.80;;
295;SDS011;132;48.770;9.200;2022-07-29T17:50:16;6.83;;;6.13;;
295;SDS011;132;48.770;9.200;2022-07-29T17:53:02;8.10;;;6.10;;
295;SDS011;132;48.770;9.200;2022-07-29T17:55:49;7.33;;;6.50;;
295;SDS011;132;48.770;9.200;2022-07-29T17:58:36;10.57;;;6.50;;
295;SDS011;132;48.770;9.200;2022-07-29T18:01:23;10.10;;;7.33;;
295;SDS011;132;48.770;9.200;2022-07-29T18:04:09;10.30;;;6.43;;
295;SDS011;132;48.770;9.200;2022-07-29T18:06:56;10.90;;;8.63;;
295;SDS011;132;48.770;9.200;2022-07-29T18:09:43;21.07;;;15.27;;
295;SDS011;132;48.770;9.200;2022-07-29T18:12:30;24.07;;;16.70;;
295;SDS011;132;48.770;9.200;2022-07-29T18:15:16;18.23;;;12.60;;
295;SDS011;132;48.770;9.200;2022-07-29T18:18:03;12.37;;;10.07;;
295;SDS011;132;48.770;9.200;2022-07-29T18:20:50;15.00;;;7.57;;
295;SDS011;132;48.770;9.200;2022-07-29T18:23:36;10.97;;;7.00;;
295;SDS011;132;48.770;9.200;2022-07-29T18:26:23;7.67;;;6.47;;
295;SDS011;132;48.770;9.200;2022-07-29T18:29:10;12.83;;;6.67;;
295;SDS011;132;48.770;9.200;2022-07-29T18:31:57;6.70;;;6.07;;
295;SDS011;132;48.770;9.200;2022-07-29T18:34:44;9.60;;;6.30;;
295;SDS011;132;48.770;9.200;2022-07-29T18:37:31;7.57;;;5.87;;
295;SDS011;132;48.770;9.200;2022-07-29T18:40:19;11.33;;;7.10;;
295;SDS011;132;48.770;9.200;2022-07-29T18:43:08;8.77;;;7.20;;
295;SDS011;132;48.770;9.200;2022-07-29T18:45:55;13.40;;;6.40;;
295;SDS011;132;48.770;9.200;2022-07-29T18:48:42;7.73;;;6.70;;
295;SDS011;132;48.770;9.200;2022-07-29T18:51:28;7.77;;;6.00;;